Time;durP1;ratioP1;P1;durP2;ratioP2;P2;SDS_P1;SDS_P2;PMS_P1;PMS_P2;Temp;Humidity;BMP_temperature;BMP_pressure;BME280_temperature;BME280_humidity;BME280_pressure;Samples;Min_cycle;Max_cycle;Signal;HPM_P1;HPM_P2
2022/02/14 00:00:11;;;;;;;10.50;4.10;;;10.10;99.90;;;;;;5088187;28;20184;-41
2022/02/14 00:02:38;;;;;;;7.23;3.43;;;10.30;99.90;;;;;;5078073;28;20216;-41
2022/02/14 00:05:04;;;;;;;6.40;3.30;;;9.90;99.90;;;;;;5088549;28;20795;-41
2022/02/14 00:07:31;;;;;;;5.63;3.57;;;10.20;99.90;;;;;;5087623;28;20498;-40
2022/02/14 00:09:57;;;;;;;5.07;3.47;;;10.00;99.90;;;;;;5088647;28;20784;-40
2022/02/14 00:12:23;;;;;;;4.40;3.50;;;10.10;99.90;;;;;;5088963;28;20407;-40
2022/02/14 00:14:49;;;;;;;7.10;3.13;;;10.00;99.90;;;;;;5089461;28;20870;-42
2022/02/14 00:17:15;;;;;;;5.90;3.30;;;10.10;99.90;;;;;;5080883;28;20188;-40
2022/02/14 00:19:40;;;;;;;5.00;2.70;;;10.30;99.90;;;;;;5088636;28;21007;-40
2022/02/14 00:22:06;;;;;;;5.53;3.20;;;9.90;99.90;;;;;;5089145;28;20215;-41
2022/02/14 00:24:32;;;;;;;5.90;3.60;;;10.10;99.90;;;;;;5089628;28;20272;-43
2022/02/14 00:26:58;;;;;;;8.57;3.50;;;9.90;99.90;;;;;;5083325;28;20237;-41
2022/02/14 00:29:25;;;;;;;5.30;3.23;;;10.00;99.90;;;;;;5084681;28;20196;-40
2022/02/14 00:31:51;;;;;;;6.67;3.57;;;10.00;99.90;;;;;;5080066;28;20875;-42
2022/02/14 00:34:17;;;;;;;5.30;3.20;;;9.90;99.90;;;;;;5085351;28;20423;-41
2022/02/14 00:36:43;;;;;;;5.10;3.10;;;10.00;99.90;;;;;;5084836;28;20194;-41
2022/02/14 00:39:10;;;;;;;3.60;2.90;;;10.00;99.90;;;;;;5087535;28;20442;-41
2022/02/14 00:41:36;;;;;;;9.50;3.90;;;9.90;99.90;;;;;;5087637;28;20415;-43
2022/02/14 00:44:01;;;;;;;5.37;3.30;;;10.00;99.90;;;;;;5088967;28;20422;-42
2022/02/14 00:46:27;;;;;;;3.77;3.30;;;9.90;99.90;;;;;;5086364;28;20443;-40
2022/02/14 00:48:53;;;;;;;4.40;2.77;;;9.90;99.90;;;;;;5081611;28;20280;-40
2022/02/14 00:51:18;;;;;;;4.40;3.10;;;9.80;99.90;;;;;;5088116;28;20192;-42
2022/02/14 00:53:44;;;;;;;7.73;3.50;;;9.90;99.90;;;;;;5077758;28;20651;-41
2022/02/14 00:56:10;;;;;;;4.90;2.97;;;9.90;99.90;;;;;;5085739;28;20694;-40
2022/02/14 00:58:35;;;;;;;3.57;3.27;;;9.80;99.90;;;;;;5088635;28;20620;-40
2022/02/14 01:01:01;;;;;;;6.67;3.17;;;10.10;99.90;;;;;;5088513;28;20473;-41
2022/02/14 01:03:27;;;;;;;7.10;2.93;;;9.90;99.90;;;;;;5079272;28;20202;-40
2022/02/14 01:05:53;;;;;;;4.30;3.47;;;9.80;99.90;;;;;;5088348;28;20419;-41
2022/02/14 01:08:19;;;;;;;6.27;3.73;;;10.00;99.90;;;;;;5088059;28;20447;-40
2022/02/14 01:10:44;;;;;;;4.33;3.10;;;9.90;99.90;;;;;;5087460;28;20214;-41
2022/02/14 01:13:10;;;;;;;5.73;3.00;;;9.80;99.90;;;;;;5088202;28;20207;-44
2022/02/14 01:15:36;;;;;;;5.90;3.30;;;10.00;99.90;;;;;;5088425;28;20559;-40
2022/02/14 01:18:01;;;;;;;5.13;3.37;;;9.90;99.90;;;;;;5075361;28;20230;-41
2022/02/14 01:20:27;;;;;;;5.90;3.40;;;9.80;99.90;;;;;;5085225;28;20191;-43
2022/02/14 01:22:53;;;;;;;5.50;3.00;;;9.80;99.90;;;;;;5088079;28;20673;-41
2022/02/14 01:25:19;;;;;;;5.20;3.30;;;9.70;99.90;;;;;;5087432;28;20257;-41
2022/02/14 01:27:44;;;;;;;4.93;3.23;;;9.80;99.90;;;;;;5086875;28;20431;-40
2022/02/14 01:30:10;;;;;;;4.37;2.87;;;9.60;99.90;;;;;;5087638;28;20211;-41
2022/02/14 01:32:36;;;;;;;5.03;3.00;;;9.70;99.90;;;;;;5080305;28;20777;-40
2022/02/14 01:35:03;;;;;;;5.77;2.80;;;9.60;99.90;;;;;;5084510;28;20414;-42
2022/02/14 01:37:31;;;;;;;4.77;3.27;;;9.80;99.90;;;;;;5087765;28;20560;-41
2022/02/14 01:39:56;;;;;;;3.40;2.70;;;9.60;99.90;;;;;;5084067;28;20531;-41
2022/02/14 01:42:22;;;;;;;5.33;3.10;;;9.60;99.90;;;;;;5087900;28;20457;-41
2022/02/14 01:44:49;;;;;;;6.43;3.40;;;9.50;99.90;;;;;;5087731;28;20188;-40
2022/02/14 01:47:21;;;;;;;3.77;3.37;;;9.60;99.90;;;;;;5081290;28;20185;-40
2022/02/14 01:49:48;;;;;;;5.40;3.67;;;9.60;99.90;;;;;;5079908;28;20418;-40
2022/02/14 01:52:15;;;;;;;3.40;2.90;;;9.70;99.90;;;;;;5087199;28;20418;-41
2022/02/14 01:54:44;;;;;;;5.50;3.03;;;9.50;99.90;;;;;;5074061;28;20522;-40
2022/02/14 01:57:12;;;;;;;4.77;2.93;;;9.70;99.90;;;;;;5087570;28;20449;-40
2022/02/14 01:59:39;;;;;;;8.00;3.63;;;9.50;99.90;;;;;;5087146;28;21036;-40
2022/02/14 02:02:06;;;;;;;3.70;2.90;;;9.50;99.90;;;;;;5084060;28;20435;-41
2022/02/14 02:04:32;;;;;;;7.00;3.57;;;9.60;99.90;;;;;;5082834;28;20771;-41
2022/02/14 02:06:58;;;;;;;6.90;3.17;;;9.70;99.90;;;;;;5086985;28;20611;-42
2022/02/14 02:09:25;;;;;;;9.60;3.17;;;9.60;99.90;;;;;;5087579;28;20426;-40
2022/02/14 02:14:37;;;;;;;4.77;3.63;;;9.60;99.90;;;;;;5088952;28;20429;-40
2022/02/14 02:17:03;;;;;;;5.10;3.20;;;9.70;99.90;;;;;;5088664;28;20989;-40
2022/02/14 02:19:29;;;;;;;8.17;2.90;;;9.60;99.90;;;;;;5081349;28;20450;-41
2022/02/14 02:21:55;;;;;;;4.90;3.47;;;9.60;99.90;;;;;;5090785;28;20426;-40
2022/02/14 02:24:22;;;;;;;3.23;2.90;;;9.40;99.90;;;;;;5091884;28;20258;-40
2022/02/14 02:27:06;;;;;;;6.37;3.10;;;9.50;99.90;;;;;;5091335;28;20414;-40
2022/02/14 02:29:36;;;;;;;7.20;4.10;;;9.70;99.90;;;;;;5090262;28;20899;-40
2022/02/14 02:32:03;;;;;;;4.17;2.80;;;9.70;99.90;;;;;;5089733;28;20682;-40
2022/02/14 02:34:28;;;;;;;6.43;3.60;;;9.60;99.90;;;;;;5084712;28;20932;-40
2022/02/14 02:36:56;;;;;;;7.33;3.40;;;9.70;99.90;;;;;;5089650;28;20436;-40
2022/02/14 02:39:23;;;;;;;3.20;2.50;;;9.40;99.90;;;;;;5090072;28;20573;-40
2022/02/14 02:41:50;;;;;;;4.20;2.83;;;9.60;99.90;;;;;;5089071;28;20414;-41
2022/02/14 02:44:16;;;;;;;3.03;2.50;;;9.70;99.90;;;;;;5090930;28;20796;-40
2022/02/14 02:46:43;;;;;;;4.70;2.90;;;9.50;99.90;;;;;;5090878;28;20926;-41
2022/02/14 02:49:16;;;;;;;5.00;3.23;;;9.50;99.90;;;;;;5084250;28;20462;-41
2022/02/14 02:51:44;;;;;;;5.03;3.03;;;9.50;99.90;;;;;;5082028;28;20768;-41
2022/02/14 02:54:11;;;;;;;5.70;2.90;;;9.40;99.90;;;;;;5090672;28;20446;-41
2022/02/14 02:56:39;;;;;;;5.80;3.00;;;9.40;99.90;;;;;;5090913;28;20974;-42
2022/02/14 02:59:06;;;;;;;4.10;3.13;;;9.50;99.90;;;;;;5090444;28;20527;-41
2022/02/14 03:01:32;;;;;;;5.13;2.77;;;9.60;99.90;;;;;;5090349;28;20425;-40
2022/02/14 03:03:58;;;;;;;4.30;3.10;;;9.40;99.90;;;;;;5080742;28;20856;-41
2022/02/14 03:06:24;;;;;;;4.83;2.93;;;9.50;99.90;;;;;;5090729;28;20421;-41
2022/02/14 03:08:50;;;;;;;5.13;3.03;;;9.30;99.90;;;;;;5090397;28;20460;-40
2022/02/14 03:11:20;;;;;;;7.53;3.50;;;9.40;99.90;;;;;;5090000;28;20422;-41
2022/02/14 03:13:47;;;;;;;4.50;2.97;;;9.50;99.90;;;;;;5090518;28;20422;-41
2022/02/14 03:16:13;;;;;;;2.83;2.63;;;9.50;99.90;;;;;;5091046;28;20464;-40
2022/02/14 03:18:39;;;;;;;4.00;3.47;;;9.40;99.90;;;;;;5080604;28;20470;-42
2022/02/14 03:21:05;;;;;;;7.30;3.37;;;9.30;99.90;;;;;;5090037;28;20415;-42
2022/02/14 03:23:31;;;;;;;4.40;2.60;;;9.50;99.90;;;;;;5090317;28;20763;-40
2022/02/14 03:25:57;;;;;;;4.23;3.10;;;9.30;99.90;;;;;;5089232;28;20815;-40
2022/02/14 03:28:23;;;;;;;3.57;2.97;;;9.30;99.90;;;;;;5090382;28;20509;-42
2022/02/14 03:30:48;;;;;;;6.20;3.07;;;9.20;99.90;;;;;;5089488;28;20184;-40
2022/02/14 03:33:14;;;;;;;3.77;3.10;;;9.20;99.90;;;;;;5084496;28;20275;-41
2022/02/14 03:35:40;;;;;;;4.60;3.23;;;9.30;99.90;;;;;;5082728;28;20188;-41
2022/02/14 03:38:06;;;;;;;4.67;2.90;;;9.30;99.90;;;;;;5089995;28;20566;-42
2022/02/14 03:40:36;;;;;;;3.70;2.73;;;9.20;99.90;;;;;;5087614;28;20422;-40
2022/02/14 03:43:03;;;;;;;4.20;2.90;;;9.40;99.90;;;;;;5090196;28;20558;-40
2022/02/14 03:45:30;;;;;;;3.93;2.90;;;9.30;99.90;;;;;;5090082;28;20429;-41
2022/02/14 03:47:56;;;;;;;5.80;2.77;;;9.20;99.90;;;;;;5086139;28;20776;-41
2022/02/14 03:50:22;;;;;;;5.10;2.93;;;9.00;99.90;;;;;;5080216;28;20488;-41
2022/02/14 03:52:47;;;;;;;5.63;3.30;;;9.00;99.90;;;;;;5089508;28;20707;-40
2022/02/14 03:55:13;;;;;;;3.20;2.87;;;8.90;99.90;;;;;;5089475;28;20208;-41
2022/02/14 03:57:39;;;;;;;5.10;2.97;;;9.00;99.90;;;;;;5089715;28;20199;-42
2022/02/14 04:00:08;;;;;;;3.73;2.50;;;9.20;99.90;;;;;;5088992;28;20180;-41
2022/02/14 04:02:35;;;;;;;5.40;2.80;;;9.00;99.90;;;;;;5088379;28;20421;-41
2022/02/14 04:05:02;;;;;;;6.07;2.77;;;9.20;99.90;;;;;;5081420;28;20443;-40
2022/02/14 04:07:28;;;;;;;4.73;2.77;;;9.10;99.90;;;;;;5089021;28;20419;-41
2022/02/14 04:09:54;;;;;;;3.83;2.67;;;9.00;99.90;;;;;;5088739;28;20820;-41
2022/02/14 04:12:20;;;;;;;5.50;2.87;;;9.20;99.90;;;;;;5089073;28;20431;-40
2022/02/14 04:14:46;;;;;;;3.70;2.47;;;9.00;99.90;;;;;;5088560;28;20437;-40
2022/02/14 04:17:12;;;;;;;4.57;2.20;;;9.20;99.90;;;;;;5089126;28;20915;-42
2022/02/14 04:19:38;;;;;;;3.73;2.33;;;9.20;99.90;;;;;;5076915;28;20250;-40
2022/02/14 04:22:04;;;;;;;2.50;2.17;;;9.10;99.90;;;;;;5088716;28;20421;-44
2022/02/14 04:24:30;;;;;;;8.60;2.97;;;9.10;99.90;;;;;;5087600;28;20406;-42
2022/02/14 04:26:56;;;;;;;3.20;2.33;;;9.10;99.90;;;;;;5088417;28;20192;-40
2022/02/14 04:29:21;;;;;;;4.80;2.37;;;9.40;99.90;;;;;;5087853;28;20457;-41
2022/02/14 04:31:47;;;;;;;4.50;2.60;;;9.50;99.90;;;;;;5088489;28;20806;-41
2022/02/14 04:34:14;;;;;;;3.00;2.70;;;9.50;99.90;;;;;;5081121;28;20347;-41
2022/02/14 04:36:40;;;;;;;3.00;1.80;;;9.50;99.90;;;;;;5088465;28;20609;-41
2022/02/14 04:39:06;;;;;;;3.30;2.47;;;9.60;99.90;;;;;;5087440;28;20454;-41
2022/02/14 04:41:31;;;;;;;6.90;3.00;;;9.70;99.90;;;;;;5081629;28;20175;-41
2022/02/14 04:43:57;;;;;;;4.43;2.33;;;9.90;99.90;;;;;;5087311;28;20713;-41
2022/02/14 04:46:23;;;;;;;4.63;2.80;;;9.80;99.90;;;;;;5088692;28;20180;-41
2022/02/14 04:48:48;;;;;;;2.40;1.80;;;9.80;99.90;;;;;;5079635;28;20185;-40
2022/02/14 04:51:14;;;;;;;5.67;2.47;;;10.00;99.90;;;;;;5082713;28;20202;-42
2022/02/14 04:53:39;;;;;;;4.33;2.60;;;9.80;99.90;;;;;;5088196;28;20184;-41
2022/02/14 04:56:05;;;;;;;3.20;2.30;;;10.00;99.90;;;;;;5088505;28;20283;-42
2022/02/14 04:58:31;;;;;;;2.93;2.10;;;10.00;99.90;;;;;;5088496;28;20321;-42
2022/02/14 05:00:56;;;;;;;7.20;2.63;;;9.90;99.90;;;;;;5087845;28;20840;-42
2022/02/14 05:03:22;;;;;;;3.37;2.53;;;9.80;99.90;;;;;;5084315;28;20181;-40
2022/02/14 05:05:48;;;;;;;6.90;2.93;;;10.00;99.90;;;;;;5082500;28;20182;-43
2022/02/14 05:08:13;;;;;;;3.93;2.73;;;9.80;99.90;;;;;;5088344;28;20184;-41
2022/02/14 05:10:39;;;;;;;2.50;2.10;;;10.00;99.90;;;;;;5087732;28;20191;-40
2022/02/14 05:13:05;;;;;;;3.00;2.13;;;9.80;99.90;;;;;;5088415;28;20646;-41
2022/02/14 05:15:30;;;;;;;4.10;2.43;;;9.80;99.90;;;;;;5088050;28;20199;-42
2022/02/14 05:17:56;;;;;;;2.57;2.20;;;9.90;99.90;;;;;;5087463;28;20216;-41
2022/02/14 05:20:22;;;;;;;2.20;1.97;;;9.80;99.90;;;;;;5077434;28;20184;-41
2022/02/14 05:22:48;;;;;;;2.93;2.40;;;9.90;99.90;;;;;;5087682;28;20198;-40
2022/02/14 05:25:14;;;;;;;2.90;2.50;;;9.90;99.90;;;;;;5085908;28;20299;-42
2022/02/14 05:27:40;;;;;;;5.43;2.00;;;9.70;99.90;;;;;;5087949;28;20517;-40
2022/02/14 05:30:06;;;;;;;2.40;1.83;;;9.90;99.90;;;;;;5087318;28;20193;-41
2022/02/14 05:32:32;;;;;;;2.77;1.83;;;9.90;99.90;;;;;;5087996;28;20188;-40
2022/02/14 05:34:58;;;;;;;3.80;2.03;;;9.80;99.90;;;;;;5078063;28;20462;-40
2022/02/14 05:37:24;;;;;;;5.57;2.43;;;9.90;99.90;;;;;;5080834;28;20438;-41
2022/02/14 05:39:50;;;;;;;5.00;2.20;;;9.80;99.90;;;;;;5085440;28;20474;-41
2022/02/14 05:42:16;;;;;;;3.97;2.50;;;9.70;99.90;;;;;;5087696;28;20521;-40
2022/02/14 05:44:43;;;;;;;4.80;2.73;;;9.80;99.90;;;;;;5087822;28;20436;-41
2022/02/14 05:47:09;;;;;;;2.37;1.90;;;10.00;99.90;;;;;;5083365;28;20442;-40
2022/02/14 05:49:36;;;;;;;4.20;2.13;;;9.80;99.90;;;;;;5078059;28;20478;-40
2022/02/14 05:52:02;;;;;;;3.43;2.20;;;9.70;99.90;;;;;;5087161;28;20494;-41
2022/02/14 05:54:28;;;;;;;3.70;2.40;;;9.80;99.90;;;;;;5074365;28;20437;-41
2022/02/14 05:56:54;;;;;;;2.30;2.10;;;9.90;99.90;;;;;;5086310;28;20797;-41
2022/02/14 05:59:20;;;;;;;2.87;2.20;;;9.80;99.90;;;;;;5085704;28;20208;-41
2022/02/14 06:01:45;;;;;;;2.90;1.90;;;9.70;99.90;;;;;;5086455;28;20177;-40
2022/02/14 06:04:12;;;;;;;3.43;1.97;;;9.70;99.90;;;;;;5079428;28;20188;-41
2022/02/14 06:06:38;;;;;;;5.43;2.30;;;9.80;99.90;;;;;;5079082;28;20188;-41
2022/02/14 06:09:04;;;;;;;5.73;2.13;;;10.00;99.90;;;;;;5084937;28;21000;-40
2022/02/14 06:11:30;;;;;;;6.10;2.20;;;10.00;99.90;;;;;;5085602;28;20207;-41
2022/02/14 06:13:56;;;;;;;2.27;2.00;;;9.90;99.90;;;;;;5085823;28;20449;-43
2022/02/14 06:16:21;;;;;;;4.90;3.27;;;9.90;99.90;;;;;;5087509;28;20414;-41
2022/02/14 06:18:47;;;;;;;2.90;2.00;;;9.80;99.90;;;;;;5083888;28;20197;-40
2022/02/14 06:21:12;;;;;;;4.73;2.30;;;9.80;99.90;;;;;;5077221;28;20185;-40
2022/02/14 06:23:38;;;;;;;4.83;1.93;;;9.80;99.90;;;;;;5086890;28;20655;-42
2022/02/14 06:26:04;;;;;;;2.80;2.20;;;9.80;99.90;;;;;;5081314;28;20200;-41
2022/02/14 06:28:30;;;;;;;3.40;1.90;;;9.80;99.90;;;;;;5083933;28;20188;-41
2022/02/14 06:30:56;;;;;;;4.00;2.27;;;9.90;99.90;;;;;;5086645;28;20440;-42
2022/02/14 06:33:22;;;;;;;2.50;2.00;;;9.90;99.90;;;;;;5082429;28;20650;-41
2022/02/14 06:35:48;;;;;;;3.47;2.30;;;9.80;99.90;;;;;;5079725;28;20293;-42
2022/02/14 06:38:13;;;;;;;7.13;2.40;;;10.00;99.90;;;;;;5086656;28;20223;-41
2022/02/14 06:40:39;;;;;;;3.37;2.50;;;9.70;99.90;;;;;;5086793;28;20793;-41
2022/02/14 06:43:05;;;;;;;2.07;1.87;;;9.80;99.90;;;;;;5086672;28;20262;-41
2022/02/14 06:45:30;;;;;;;4.80;2.53;;;9.70;99.90;;;;;;5087095;28;20188;-41
2022/02/14 06:47:56;;;;;;;3.30;2.20;;;9.90;99.90;;;;;;5087216;28;20663;-42
2022/02/14 06:50:22;;;;;;;2.30;1.83;;;9.70;99.90;;;;;;5076011;28;21331;-42
2022/02/14 06:52:48;;;;;;;2.10;1.90;;;10.10;99.90;;;;;;5081583;28;20683;-41
2022/02/14 06:55:14;;;;;;;3.23;2.23;;;9.90;99.90;;;;;;5079026;28;20469;-41
2022/02/14 06:57:40;;;;;;;4.43;2.20;;;10.00;99.90;;;;;;5084829;28;20600;-40
2022/02/14 07:00:10;;;;;;;4.53;2.20;;;9.80;99.90;;;;;;5086500;28;20424;-41
2022/02/14 07:02:36;;;;;;;2.40;1.93;;;9.60;99.90;;;;;;5083625;28;20445;-41
2022/02/14 07:05:03;;;;;;;5.70;2.10;;;9.80;99.90;;;;;;5080373;28;20431;-41
2022/02/14 07:07:28;;;;;;;2.83;1.90;;;9.90;99.90;;;;;;5082675;28;20410;-42
2022/02/14 07:09:54;;;;;;;2.40;2.20;;;9.80;99.90;;;;;;5090466;28;20429;-41
2022/02/14 07:12:20;;;;;;;3.50;1.87;;;9.70;99.90;;;;;;5089855;28;20192;-41
2022/02/14 07:14:46;;;;;;;2.50;1.97;;;9.80;99.90;;;;;;5089446;28;20452;-41
2022/02/14 07:17:13;;;;;;;3.10;2.23;;;9.70;99.90;;;;;;5090072;28;20180;-41
2022/02/14 07:19:39;;;;;;;2.47;1.73;;;9.80;99.90;;;;;;5083262;28;20273;-41
2022/02/14 07:22:06;;;;;;;2.60;2.07;;;10.00;99.90;;;;;;5088459;28;20513;-42
2022/02/14 07:24:32;;;;;;;3.60;2.30;;;9.70;99.90;;;;;;5089584;28;20931;-41
2022/02/14 07:26:58;;;;;;;3.20;1.93;;;9.90;99.90;;;;;;5089858;28;20952;-44
2022/02/14 07:29:23;;;;;;;4.07;1.97;;;9.80;99.90;;;;;;5089683;28;20419;-41
2022/02/14 07:31:49;;;;;;;3.13;2.37;;;9.90;99.90;;;;;;5086271;28;20196;-41
2022/02/14 07:34:15;;;;;;;1.80;1.53;;;10.10;99.90;;;;;;5087251;28;20188;-40
2022/02/14 07:36:40;;;;;;;3.00;2.20;;;10.10;99.90;;;;;;5087153;28;20216;-41
2022/02/14 07:39:06;;;;;;;2.57;2.03;;;10.00;99.90;;;;;;5089982;28;20294;-41
2022/02/14 07:41:34;;;;;;;3.27;1.90;;;10.00;99.90;;;;;;5090314;28;20185;-41
2022/02/14 07:44:00;;;;;;;1.87;1.67;;;10.00;99.90;;;;;;5090075;28;20177;-40
2022/02/14 07:46:27;;;;;;;3.00;1.97;;;10.20;99.90;;;;;;5089394;28;20474;-40
2022/02/14 07:48:53;;;;;;;5.10;2.00;;;10.10;99.90;;;;;;5090103;28;20434;-41
2022/02/14 07:51:19;;;;;;;2.73;2.07;;;10.20;99.90;;;;;;5078690;28;20499;-40
2022/02/14 07:53:45;;;;;;;2.30;2.00;;;10.20;99.90;;;;;;5083462;28;20940;-41
2022/02/14 07:56:13;;;;;;;2.63;1.80;;;10.20;99.90;;;;;;5089818;28;20795;-40
2022/02/14 07:58:40;;;;;;;2.63;1.73;;;10.20;99.90;;;;;;5089173;28;20466;-42
2022/02/14 08:01:06;;;;;;;3.77;2.33;;;10.10;99.90;;;;;;5088621;28;20501;-41
2022/02/14 08:03:32;;;;;;;2.10;1.70;;;10.40;99.90;;;;;;5088955;28;20522;-42
2022/02/14 08:05:58;;;;;;;2.17;1.73;;;10.10;99.90;;;;;;5088229;28;20181;-41
2022/02/14 08:08:24;;;;;;;2.33;2.13;;;10.20;99.90;;;;;;5088693;28;20836;-43
2022/02/14 08:10:50;;;;;;;5.33;2.10;;;10.00;99.90;;;;;;5089011;28;20426;-40
2022/02/14 08:13:16;;;;;;;5.40;2.03;;;10.20;99.90;;;;;;5088734;28;20622;-41
2022/02/14 08:15:42;;;;;;;3.10;1.80;;;10.20;99.90;;;;;;5089550;28;20536;-40
2022/02/14 08:18:10;;;;;;;4.40;2.10;;;10.20;99.90;;;;;;5089233;28;20232;-41
2022/02/14 08:20:37;;;;;;;2.03;1.50;;;10.20;99.90;;;;;;5079230;28;20632;-40
2022/02/14 08:23:04;;;;;;;2.77;1.63;;;10.20;99.90;;;;;;5088967;28;20469;-41
2022/02/14 08:25:31;;;;;;;2.90;2.00;;;10.30;99.90;;;;;;5089225;28;20904;-41
2022/02/14 08:27:58;;;;;;;2.63;2.07;;;10.40;99.90;;;;;;5089093;28;20418;-41
2022/02/14 08:30:24;;;;;;;2.83;2.10;;;10.20;99.90;;;;;;5088806;28;20976;-41
2022/02/14 08:32:50;;;;;;;2.73;2.53;;;10.30;99.90;;;;;;5089342;28;20472;-40
2022/02/14 08:35:17;;;;;;;2.10;1.90;;;10.30;99.90;;;;;;5079920;28;20191;-44
2022/02/14 08:37:47;;;;;;;3.20;1.83;;;10.20;99.90;;;;;;5080627;28;20957;-43
2022/02/14 08:40:15;;;;;;;2.77;1.90;;;10.50;99.90;;;;;;5087917;28;20454;-40
2022/02/14 08:42:41;;;;;;;3.03;2.20;;;10.30;99.90;;;;;;5089430;28;20804;-41
2022/02/14 08:45:07;;;;;;;2.73;1.80;;;10.20;99.90;;;;;;5087531;28;20415;-43
2022/02/14 08:47:33;;;;;;;1.83;1.53;;;10.30;99.90;;;;;;5088180;28;20443;-41
2022/02/14 08:50:02;;;;;;;3.90;2.00;;;10.60;99.90;;;;;;5087922;28;20469;-42
2022/02/14 08:52:28;;;;;;;2.27;1.80;;;10.40;99.90;;;;;;5089265;28;20188;-41
2022/02/14 08:54:55;;;;;;;2.50;1.67;;;10.50;99.90;;;;;;5083489;28;20778;-41
2022/02/14 08:57:21;;;;;;;1.63;1.47;;;10.50;99.90;;;;;;5083470;28;20425;-41
2022/02/14 08:59:47;;;;;;;3.87;2.10;;;10.60;99.90;;;;;;5085129;28;20851;-42
2022/02/14 09:02:14;;;;;;;3.70;1.60;;;10.60;99.90;;;;;;5088362;28;20418;-41
2022/02/14 09:04:40;;;;;;;2.20;1.90;;;10.60;99.90;;;;;;5085506;28;21112;-41
2022/02/14 09:07:06;;;;;;;2.10;1.90;;;10.60;99.90;;;;;;5076672;28;20430;-41
2022/02/14 09:09:31;;;;;;;3.60;1.80;;;10.80;99.90;;;;;;5088251;28;20188;-41
2022/02/14 09:12:00;;;;;;;2.60;2.00;;;10.80;99.90;;;;;;5087786;28;20457;-42
2022/02/14 09:14:26;;;;;;;2.57;1.93;;;10.70;99.90;;;;;;5088236;28;20204;-41
2022/02/14 09:16:52;;;;;;;2.97;1.97;;;10.60;99.90;;;;;;5088222;28;20429;-41
2022/02/14 09:19:19;;;;;;;2.00;1.80;;;10.70;99.90;;;;;;5086853;28;20454;-42
2022/02/14 09:21:44;;;;;;;3.10;1.60;;;10.90;99.90;;;;;;5076260;28;20747;-43
2022/02/14 09:24:13;;;;;;;2.80;1.87;;;10.90;99.90;;;;;;5087231;28;20461;-41
2022/02/14 09:26:45;;;;;;;1.67;1.53;;;10.70;99.90;;;;;;5088038;28;20183;-42
2022/02/14 09:29:12;;;;;;;2.50;1.50;;;11.00;99.90;;;;;;5088574;28;20454;-41
2022/02/14 09:31:38;;;;;;;1.70;1.60;;;10.80;99.90;;;;;;5087390;28;20418;-43
2022/02/14 09:34:05;;;;;;;2.20;1.87;;;11.00;99.90;;;;;;5088161;28;20657;-41
2022/02/14 09:36:32;;;;;;;2.57;2.27;;;10.80;99.90;;;;;;5078642;28;20971;-41
2022/02/14 09:38:57;;;;;;;4.23;1.97;;;11.10;99.90;;;;;;5087664;28;20455;-41
2022/02/14 09:41:25;;;;;;;2.13;1.93;;;11.00;99.90;;;;;;5087593;28;20798;-41
2022/02/14 09:43:51;;;;;;;2.10;1.90;;;10.80;99.90;;;;;;5087801;28;20180;-43
2022/02/14 09:46:17;;;;;;;4.10;1.83;;;10.90;99.90;;;;;;5087994;28;20493;-41
2022/02/14 09:48:44;;;;;;;2.10;1.53;;;11.00;99.90;;;;;;5087603;28;20414;-42
2022/02/14 09:51:12;;;;;;;2.00;1.80;;;11.00;99.90;;;;;;5076755;28;21150;-40
2022/02/14 09:53:40;;;;;;;6.80;1.70;;;11.00;99.90;;;;;;5087062;28;20427;-41
2022/02/14 09:56:06;;;;;;;2.70;1.70;;;11.00;99.90;;;;;;5087720;28;20439;-41
2022/02/14 09:58:32;;;;;;;4.53;1.80;;;11.10;99.90;;;;;;5086103;28;20508;-40
2022/02/14 10:00:59;;;;;;;2.00;1.73;;;11.00;99.90;;;;;;5087348;28;20450;-40
2022/02/14 10:03:24;;;;;;;3.20;1.90;;;11.00;99.90;;;;;;5087473;28;20792;-40
2022/02/14 10:05:58;;;;;;;2.13;1.93;;;11.30;99.90;;;;;;5082276;28;20509;-40
2022/02/14 10:08:32;;;;;;;2.87;1.80;;;11.10;99.90;;;;;;5084891;28;20505;-43
2022/02/14 10:11:16;;;;;;;2.23;1.63;;;11.10;99.90;;;;;;5087092;28;20579;-42
2022/02/14 10:13:51;;;;;;;4.27;2.13;;;11.10;99.90;;;;;;5087272;28;20433;-42
2022/02/14 10:16:17;;;;;;;2.37;1.73;;;11.00;99.90;;;;;;5087449;28;20422;-43
2022/02/14 10:18:44;;;;;;;3.37;1.60;;;10.90;99.90;;;;;;5085563;28;20489;-41
2022/02/14 10:21:23;;;;;;;4.40;1.87;;;11.10;99.90;;;;;;5078353;28;20438;-41
2022/02/14 10:24:13;;;;;;;2.07;1.93;;;11.20;99.90;;;;;;5084727;28;20726;-42
2022/02/14 10:26:40;;;;;;;2.07;1.80;;;11.10;99.90;;;;;;5087394;28;20418;-41
2022/02/14 10:29:21;;;;;;;2.83;1.57;;;11.10;99.90;;;;;;5087013;28;20846;-42
2022/02/14 10:31:46;;;;;;;1.50;1.40;;;11.20;99.90;;;;;;5085568;28;20487;-41
2022/02/14 10:34:12;;;;;;;1.60;1.50;;;11.20;99.90;;;;;;5087199;28;20415;-42
2022/02/14 10:36:44;;;;;;;1.63;1.53;;;11.10;99.90;;;;;;5080795;28;20427;-42
2022/02/14 10:39:17;;;;;;;2.10;1.80;;;11.10;99.90;;;;;;5089987;28;20457;-42
2022/02/14 10:41:45;;;;;;;2.07;1.87;;;11.10;99.90;;;;;;5090796;28;20448;-41
2022/02/14 10:47:08;;;;;;;4.37;1.50;;;11.10;99.90;;;;;;5080173;28;20418;-41
2022/02/14 10:49:34;;;;;;;1.80;1.40;;;11.10;99.90;;;;;;5090742;28;20432;-41
2022/02/14 10:52:05;;;;;;;1.77;1.63;;;11.10;99.90;;;;;;5080173;28;20431;-44
2022/02/14 10:54:36;;;;;;;2.07;1.33;;;11.20;99.90;;;;;;5089586;28;20181;-41
2022/02/14 10:57:02;;;;;;;1.40;0.70;;;11.30;99.90;;;;;;5082134;28;20442;-42
2022/02/14 10:59:29;;;;;;;0.80;0.80;;;11.30;99.90;;;;;;5091164;28;20476;-42
2022/02/14 11:01:55;;;;;;;0.90;0.80;;;11.40;99.90;;;;;;5089890;28;20418;-42
2022/02/14 11:04:21;;;;;;;0.70;0.60;;;11.70;99.90;;;;;;5090553;28;20762;-41
2022/02/14 11:06:47;;;;;;;0.93;0.90;;;11.50;99.90;;;;;;5077974;28;20834;-43
2022/02/14 11:09:14;;;;;;;2.30;1.10;;;11.50;99.90;;;;;;5088897;28;20186;-42
2022/02/14 11:11:46;;;;;;;0.70;0.70;;;11.60;99.90;;;;;;5090280;28;20773;-42
2022/02/14 11:14:12;;;;;;;2.70;1.00;;;11.80;99.90;;;;;;5091053;28;20491;-41
2022/02/14 11:16:41;;;;;;;1.90;1.77;;;11.60;99.90;;;;;;5090639;28;20831;-41
2022/02/14 11:19:10;;;;;;;1.57;1.30;;;11.70;99.90;;;;;;5088882;28;20462;-41
2022/02/14 11:21:36;;;;;;;2.33;1.13;;;11.60;99.90;;;;;;5082464;28;20543;-41
2022/02/14 11:24:15;;;;;;;4.40;1.40;;;11.70;99.90;;;;;;5090201;28;20450;-41
2022/02/14 11:26:55;;;;;;;1.23;1.00;;;11.60;99.90;;;;;;5090596;28;20410;-41
2022/02/14 11:29:52;;;;;;;1.63;1.43;;;11.70;99.90;;;;;;5090674;28;20791;-41
2022/02/14 11:32:26;;;;;;;1.67;0.90;;;11.70;99.90;;;;;;5077654;28;20415;-41
2022/02/14 11:35:20;;;;;;;0.90;0.80;;;11.50;99.90;;;;;;5090183;28;20758;-40
2022/02/14 11:37:54;;;;;;;1.60;1.10;;;11.50;99.90;;;;;;5078185;28;20554;-41
2022/02/14 11:40:28;;;;;;;2.80;1.27;;;11.40;99.90;;;;;;5086375;28;20467;-41
2022/02/14 11:43:07;;;;;;;1.30;1.10;;;11.20;99.90;;;;;;5090190;28;20777;-42
2022/02/14 11:45:34;;;;;;;3.63;1.00;;;11.40;99.90;;;;;;5090352;28;20900;-41
2022/02/14 11:48:19;;;;;;;1.13;0.80;;;11.50;99.90;;;;;;5088692;28;20399;-41
2022/02/14 11:50:45;;;;;;;2.07;0.93;;;11.30;99.90;;;;;;5089019;28;20795;-41
2022/02/14 11:53:30;;;;;;;2.50;0.70;;;11.30;99.90;;;;;;5081819;28;20436;-41
2022/02/14 11:56:21;;;;;;;2.03;0.83;;;11.20;99.90;;;;;;5084948;28;20525;-41
2022/02/14 11:59:18;;;;;;;4.10;0.80;;;11.60;99.90;;;;;;5089463;28;20462;-41
2022/02/14 12:01:50;;;;;;;1.03;0.93;;;11.60;99.90;;;;;;5089381;28;20766;-40
2022/02/14 12:04:52;;;;;;;0.80;0.70;;;11.70;99.90;;;;;;5089470;28;20948;-42
2022/02/14 12:07:18;;;;;;;0.70;0.60;;;11.80;99.90;;;;;;5078829;28;20533;-41
2022/02/14 12:09:58;;;;;;;2.50;0.90;;;12.00;99.90;;;;;;5083642;28;20450;-42
2022/02/14 12:12:39;;;;;;;2.40;0.93;;;12.30;99.90;;;;;;5089704;28;20824;-41
2022/02/14 12:20:47;;;;;;;1.13;1.00;;;12.70;99.90;;;;;;5087224;28;20475;-42
2022/02/14 12:23:13;;;;;;;1.80;1.13;;;12.50;99.90;;;;;;5079322;28;20437;-44
2022/02/14 12:25:50;;;;;;;1.73;0.90;;;12.40;99.90;;;;;;5088755;28;20418;-41
2022/02/14 12:28:17;;;;;;;0.97;0.90;;;12.30;99.90;;;;;;5089299;28;20513;-41
2022/02/14 12:30:44;;;;;;;1.53;0.87;;;12.20;99.90;;;;;;5088175;28;20513;-41
2022/02/14 12:33:12;;;;;;;1.10;1.00;;;11.90;99.90;;;;;;5088481;28;20437;-41
2022/02/14 12:35:50;;;;;;;3.23;1.03;;;11.90;99.90;;;;;;5088563;28;20414;-42
2022/02/14 12:38:16;;;;;;;5.23;1.57;;;11.80;99.90;;;;;;5081069;28;20607;-42
2022/02/14 12:40:56;;;;;;;1.03;0.90;;;11.70;99.90;;;;;;5087511;28;20505;-40
2022/02/14 12:43:21;;;;;;;1.13;0.80;;;11.70;99.90;;;;;;5089123;28;20418;-42
2022/02/14 12:45:49;;;;;;;5.30;0.80;;;11.70;99.90;;;;;;5088718;28;20471;-41
2022/02/14 12:48:33;;;;;;;2.27;0.97;;;11.70;99.90;;;;;;5088893;28;20207;-41
2022/02/14 12:51:02;;;;;;;2.60;0.80;;;11.50;99.90;;;;;;5088000;28;20495;-42
2022/02/14 12:53:27;;;;;;;6.20;0.90;;;11.50;99.90;;;;;;5078164;28;20794;-41
2022/02/14 12:55:57;;;;;;;2.43;1.10;;;11.30;99.90;;;;;;5088392;28;20578;-42
2022/02/14 12:58:24;;;;;;;1.00;0.80;;;11.50;99.90;;;;;;5088638;28;20200;-40
2022/02/14 13:00:50;;;;;;;1.00;0.70;;;11.30;99.90;;;;;;5088251;28;20921;-40
2022/02/14 13:03:19;;;;;;;1.60;0.80;;;11.50;99.90;;;;;;5088459;28;20419;-41
2022/02/14 13:05:52;;;;;;;5.83;0.73;;;11.20;99.90;;;;;;5088439;28;21046;-42